createdAt,value
2022-11-23T00:00:31.819Z,2.700
2022-11-23T00:01:38.236Z,2.700
2022-11-23T00:02:34.549Z,2.700
2022-11-23T00:03:23.514Z,2.700
2022-11-23T00:05:39.964Z,2.600
2022-11-23T00:06:23.241Z,2.600
2022-11-23T00:07:36.660Z,2.600
2022-11-23T00:08:25.003Z,2.600
2022-11-23T00:09:49.677Z,2.600
2022-11-23T00:10:32.262Z,2.600
2022-11-23T00:11:31.264Z,2.600
2022-11-23T00:12:30.845Z,2.600
2022-11-23T00:13:24.217Z,2.600
2022-11-23T00:14:38.999Z,2.600
2022-11-23T00:15:42.437Z,2.600
2022-11-23T00:16:25.029Z,2.600
2022-11-23T00:18:29.469Z,2.600
2022-11-23T00:19:29.012Z,2.600
2022-11-23T00:20:26.331Z,2.600
2022-11-23T00:21:32.505Z,2.600
2022-11-23T00:22:31.242Z,2.600
2022-11-23T00:23:24.728Z,2.600
2022-11-23T00:24:21.219Z,2.600
2022-11-23T00:25:35.269Z,2.600
2022-11-23T00:26:22.784Z,2.600
2022-11-23T00:27:24.366Z,2.600
2022-11-23T00:28:31.981Z,2.600
2022-11-23T00:29:30.087Z,2.600
2022-11-23T00:30:26.173Z,2.600
2022-11-23T00:31:22.416Z,2.600
2022-11-23T00:32:32.513Z,2.600
2022-11-23T00:34:24.945Z,2.600
2022-11-23T00:35:32.290Z,2.600
2022-11-23T00:36:32.623Z,2.600
2022-11-23T00:37:27.642Z,2.600
2022-11-23T00:38:24.520Z,2.600
2022-11-23T00:39:35.368Z,2.600
2022-11-23T00:40:31.107Z,2.600
2022-11-23T00:41:25.974Z,2.700
2022-11-23T00:43:30.010Z,2.600
2022-11-23T00:44:25.934Z,2.600
2022-11-23T00:45:23.609Z,2.600
2022-11-23T00:46:21.836Z,2.700
2022-11-23T00:47:31.036Z,2.700
2022-11-23T00:48:25.841Z,2.700
2022-11-23T00:49:21.875Z,2.700
2022-11-23T00:50:28.451Z,2.700
2022-11-23T00:51:26.134Z,2.700
2022-11-23T00:52:20.360Z,2.700
2022-11-23T00:53:26.793Z,2.700
2022-11-23T00:54:26.626Z,2.700
2022-11-23T00:55:24.377Z,2.700
2022-11-23T00:56:24.277Z,2.700
2022-11-23T00:58:26.611Z,2.700
2022-11-23T00:59:20.390Z,2.800
2022-11-23T01:00:32.093Z,2.800
2022-11-23T01:01:26.159Z,2.800
2022-11-23T01:02:24.170Z,2.800
2022-11-23T01:03:24.775Z,2.800
2022-11-23T01:04:24.492Z,2.800
2022-11-23T01:05:42.167Z,2.800
2022-11-23T01:06:45.651Z,2.800
2022-11-23T01:07:25.085Z,2.800
2022-11-23T01:08:30.303Z,2.800
2022-11-23T01:09:24.755Z,2.800
2022-11-23T01:10:30.810Z,2.800
2022-11-23T01:11:31.297Z,2.800
2022-11-23T01:12:28.026Z,2.800
2022-11-23T01:13:19.993Z,2.800
2022-11-23T01:14:22.317Z,2.800
2022-11-23T01:15:33.331Z,2.800
2022-11-23T01:16:24.136Z,2.800
2022-11-23T01:17:39.873Z,2.800
2022-11-23T01:18:30.093Z,2.800
2022-11-23T01:20:21.192Z,2.800
2022-11-23T01:21:25.518Z,2.800
2022-11-23T01:22:26.299Z,2.800
2022-11-23T01:23:24.253Z,2.800
2022-11-23T01:24:34.751Z,2.800
2022-11-23T01:25:20.406Z,2.800
2022-11-23T01:26:32.748Z,2.800
2022-11-23T01:28:30.928Z,2.800
2022-11-23T01:29:27.611Z,2.800
2022-11-23T01:30:22.521Z,2.800
2022-11-23T01:31:23.596Z,2.800
2022-11-23T01:32:24.185Z,2.800
2022-11-23T01:33:26.487Z,2.800
2022-11-23T01:34:22.564Z,2.800
2022-11-23T01:35:33.635Z,2.800
2022-11-23T01:36:30.982Z,2.800
2022-11-23T01:37:24.382Z,2.800
2022-11-23T01:38:30.006Z,2.800
2022-11-23T01:39:26.692Z,2.800
2022-11-23T01:41:20.484Z,2.900
2022-11-23T01:42:22.996Z,2.900
2022-11-23T01:43:22.006Z,2.900
2022-11-23T01:44:22.226Z,2.900
2022-11-23T01:45:34.579Z,2.900
2022-11-23T01:46:27.495Z,2.900
2022-11-23T01:47:27.023Z,2.900
2022-11-23T01:48:20.751Z,2.900
2022-11-23T01:49:25.755Z,2.900
2022-11-23T01:50:28.505Z,2.900
2022-11-23T01:51:24.070Z,2.900
2022-11-23T01:53:31.834Z,2.900
2022-11-23T01:54:28.807Z,2.900
2022-11-23T01:55:23.032Z,2.900
2022-11-23T01:56:34.212Z,2.900
2022-11-23T01:57:22.914Z,2.900
2022-11-23T01:58:25.604Z,2.900
2022-11-23T01:59:34.715Z,2.900
2022-11-23T02:00:43.893Z,2.900
2022-11-23T02:01:35.117Z,2.900
2022-11-23T02:02:20.655Z,2.900
2022-11-23T02:03:48.930Z,2.900
2022-11-23T02:04:57.612Z,2.900
2022-11-23T02:45:37.228Z,2.900
2022-11-23T02:46:28.637Z,2.900
2022-11-23T02:47:29.490Z,2.900
2022-11-23T02:48:27.281Z,2.800
2022-11-23T02:49:36.576Z,2.800
2022-11-23T02:50:47.662Z,2.800
2022-11-23T02:51:58.644Z,2.900
2022-11-23T02:52:35.545Z,2.800
2022-11-23T02:53:27.671Z,2.800
2022-11-23T03:26:43.693Z,2.700
2022-11-23T03:27:44.917Z,2.700
2022-11-23T03:29:31.833Z,2.600
2022-11-23T03:30:30.732Z,2.600
2022-11-23T03:31:32.060Z,2.700
2022-11-23T03:32:24.551Z,2.600
2022-11-23T03:33:22.014Z,2.600
2022-11-23T03:34:31.392Z,2.600
2022-11-23T03:35:23.410Z,2.600
2022-11-23T03:37:50.447Z,2.600
2022-11-23T03:38:33.001Z,2.600
2022-11-23T03:39:31.574Z,2.600
2022-11-23T03:40:25.305Z,2.600
2022-11-23T03:41:29.582Z,2.600
2022-11-23T03:42:27.615Z,2.600
2022-11-23T03:43:22.423Z,2.600
2022-11-23T03:44:37.013Z,2.600
2022-11-23T03:45:30.539Z,2.600
2022-11-23T03:46:20.836Z,2.550
2022-11-23T03:47:20.460Z,2.600
2022-11-23T03:48:30.627Z,2.600
2022-11-23T03:49:31.417Z,2.600
2022-11-23T03:50:23.745Z,2.600
2022-11-23T03:51:25.208Z,2.600
2022-11-23T03:52:27.839Z,2.600
2022-11-23T03:53:25.094Z,2.600
2022-11-23T03:54:21.065Z,2.600
2022-11-23T03:55:24.263Z,2.600
2022-11-23T03:56:28.676Z,2.600
2022-11-23T03:57:25.158Z,2.600
2022-11-23T03:58:30.163Z,2.600
2022-11-23T03:59:23.361Z,2.600
2022-11-23T04:00:29.750Z,2.600
2022-11-23T04:01:20.222Z,2.600
2022-11-23T04:02:28.936Z,2.600
2022-11-23T04:03:22.363Z,2.600
2022-11-23T04:04:22.459Z,2.600
2022-11-23T04:05:32.251Z,2.600
2022-11-23T04:06:24.646Z,2.600
2022-11-23T04:07:30.209Z,2.600
2022-11-23T04:08:25.133Z,2.600
2022-11-23T04:09:29.568Z,2.600
2022-11-23T04:10:25.650Z,2.600
2022-11-23T04:11:26.634Z,2.600
2022-11-23T04:12:32.187Z,2.600
2022-11-23T04:13:42.919Z,2.600
2022-11-23T04:15:22.031Z,2.600
2022-11-23T04:16:33.420Z,2.600
2022-11-23T04:17:30.837Z,2.600
2022-11-23T04:18:25.530Z,2.600
2022-11-23T04:19:32.575Z,2.600
2022-11-23T04:20:26.268Z,2.500
2022-11-23T04:21:27.294Z,2.500
2022-11-23T04:23:30.273Z,2.600
2022-11-23T04:24:28.558Z,2.600
2022-11-23T04:25:23.960Z,2.600
2022-11-23T04:26:32.028Z,2.600
2022-11-23T04:27:30.495Z,2.600
2022-11-23T04:28:24.282Z,2.600
2022-11-23T04:29:24.905Z,2.600
2022-11-23T04:31:23.978Z,2.500
2022-11-23T04:32:22.617Z,2.600
2022-11-23T04:33:34.129Z,2.600
2022-11-23T04:34:29.980Z,2.600
2022-11-23T04:35:24.266Z,2.600
2022-11-23T04:36:20.600Z,2.600
2022-11-23T04:37:25.151Z,2.600
2022-11-23T04:38:30.578Z,2.600
2022-11-23T04:39:24.796Z,2.600
2022-11-23T04:40:24.661Z,2.600
2022-11-23T04:41:31.898Z,2.600
2022-11-23T04:42:25.838Z,2.600
2022-11-23T04:43:20.514Z,2.600
2022-11-23T04:44:24.594Z,2.600
2022-11-23T04:45:28.238Z,2.600
2022-11-23T04:46:27.155Z,2.600
2022-11-23T04:47:31.750Z,2.600
2022-11-23T04:48:21.967Z,2.600
2022-11-23T04:49:24.780Z,2.600
2022-11-23T04:50:23.044Z,2.600
2022-11-23T04:51:22.019Z,2.600
2022-11-23T04:52:24.088Z,2.600
2022-11-23T04:53:22.419Z,2.600
2022-11-23T04:54:29.526Z,2.600
2022-11-23T04:55:28.775Z,2.600
2022-11-23T04:56:25.530Z,2.600
2022-11-23T04:57:22.633Z,2.600
2022-11-23T04:58:31.593Z,2.600
2022-11-23T04:59:27.098Z,2.600
2022-11-23T05:00:27.537Z,2.600
2022-11-23T05:01:35.097Z,2.600
2022-11-23T05:02:23.450Z,2.650
2022-11-23T05:03:25.188Z,2.700
2022-11-23T05:04:34.628Z,2.700
2022-11-23T05:05:24.846Z,2.700
2022-11-23T05:06:26.994Z,2.700
2022-11-23T05:07:22.968Z,2.700
2022-11-23T05:09:24.754Z,2.700
2022-11-23T05:10:29.123Z,2.700
2022-11-23T05:11:20.923Z,2.700
2022-11-23T05:12:31.394Z,2.700
2022-11-23T05:13:27.353Z,2.800
2022-11-23T05:14:22.576Z,2.800
2022-11-23T05:15:24.864Z,2.800
2022-11-23T05:16:20.599Z,2.800
2022-11-23T05:17:24.624Z,2.800
2022-11-23T05:18:22.503Z,2.800
2022-11-23T05:19:34.895Z,2.800
2022-11-23T05:20:23.718Z,2.800
2022-11-23T05:21:27.526Z,2.800
2022-11-23T05:22:25.288Z,2.800
2022-11-23T05:23:28.680Z,2.900
2022-11-23T05:24:27.535Z,2.900
2022-11-23T05:25:20.678Z,2.900
2022-11-23T05:26:27.163Z,2.900
2022-11-23T05:27:26.735Z,2.900
2022-11-23T05:28:40.283Z,2.900
2022-11-23T05:29:29.018Z,2.900
2022-11-23T05:30:21.822Z,3.000
2022-11-23T05:31:24.815Z,3.000
2022-11-23T05:32:20.409Z,2.900
2022-11-23T05:33:26.080Z,2.900
2022-11-23T05:34:29.558Z,2.900
2022-11-23T05:35:22.447Z,2.900
2022-11-23T05:36:48.189Z,2.900
2022-11-23T05:38:24.527Z,3.000
2022-11-23T05:39:24.746Z,3.000
2022-11-23T05:40:31.827Z,3.000
2022-11-23T05:41:24.788Z,3.000
2022-11-23T05:42:23.015Z,3.000
2022-11-23T05:43:33.849Z,3.000
2022-11-23T05:44:19.517Z,3.000
2022-11-23T05:45:26.045Z,3.000
2022-11-23T05:46:22.163Z,3.000
2022-11-23T05:47:39.807Z,3.000
2022-11-23T05:48:30.531Z,2.900
2022-11-23T05:49:22.771Z,2.900
2022-11-23T05:50:24.469Z,2.900
2022-11-23T05:51:30.571Z,2.900
2022-11-23T05:52:28.270Z,2.900
2022-11-23T05:54:30.988Z,2.900
2022-11-23T05:55:30.098Z,2.900
2022-11-23T05:56:35.812Z,2.900
2022-11-23T05:57:32.862Z,2.900
2022-11-23T05:58:30.878Z,2.900
2022-11-23T05:59:26.681Z,2.800
2022-11-23T06:00:26.043Z,2.800
2022-11-23T06:02:28.517Z,2.800
2022-11-23T06:03:24.905Z,2.800
2022-11-23T06:04:21.887Z,2.800
2022-11-23T06:05:31.739Z,2.800
2022-11-23T06:06:25.932Z,2.800
2022-11-23T06:07:23.116Z,2.800
2022-11-23T06:08:21.915Z,2.800
2022-11-23T06:09:28.385Z,2.800
2022-11-23T06:10:22.965Z,2.800
2022-11-23T06:11:24.342Z,2.800
2022-11-23T06:12:28.691Z,2.800
2022-11-23T06:13:26.612Z,2.800
2022-11-23T06:14:23.209Z,2.800
2022-11-23T06:15:28.641Z,2.800
2022-11-23T06:16:27.447Z,2.800
2022-11-23T06:17:26.864Z,2.800
2022-11-23T06:18:23.679Z,2.900
2022-11-23T06:19:25.916Z,2.900
2022-11-23T06:20:27.529Z,2.900
2022-11-23T06:21:22.737Z,2.900
2022-11-23T06:22:30.581Z,2.900
2022-11-23T06:23:23.088Z,2.900
2022-11-23T06:24:24.352Z,2.900
2022-11-23T06:25:23.588Z,3.000
2022-11-23T06:26:28.485Z,3.000
2022-11-23T06:27:27.317Z,3.000
2022-11-23T06:28:21.431Z,3.000
2022-11-23T06:29:24.592Z,3.000
2022-11-23T06:30:30.123Z,3.000
2022-11-23T06:32:25.153Z,3.100
2022-11-23T06:33:31.987Z,3.100
2022-11-23T06:34:29.112Z,3.100
2022-11-23T06:35:20.860Z,3.100
2022-11-23T06:36:21.717Z,3.100
2022-11-23T06:38:25.008Z,3.100
2022-11-23T06:40:32.388Z,3.100
2022-11-23T06:41:32.718Z,3.200
2022-11-23T06:42:39.668Z,3.200
2022-11-23T06:43:26.705Z,3.200
2022-11-23T06:44:31.115Z,3.200
2022-11-23T06:45:22.887Z,3.200
2022-11-23T06:46:22.442Z,3.200
2022-11-23T06:47:29.480Z,3.300
2022-11-23T06:48:25.408Z,3.300
2022-11-23T06:49:23.618Z,3.300
2022-11-23T06:50:29.236Z,3.300
2022-11-23T06:51:31.470Z,3.300
2022-11-23T06:52:27.671Z,3.300
2022-11-23T06:54:27.422Z,3.300
2022-11-23T06:55:30.861Z,3.300
2022-11-23T06:56:25.683Z,3.300
2022-11-23T06:57:23.755Z,3.300
2022-11-23T06:58:27.969Z,3.300
2022-11-23T06:59:26.234Z,3.400
2022-11-23T07:00:32.465Z,3.400
2022-11-23T07:01:26.955Z,3.400
2022-11-23T07:02:25.100Z,3.400
2022-11-23T07:03:21.299Z,3.400
2022-11-23T07:04:25.798Z,3.400
2022-11-23T07:05:29.967Z,3.400
2022-11-23T07:06:25.341Z,3.400
2022-11-23T07:07:34.295Z,3.400
2022-11-23T07:10:20.675Z,3.400
2022-11-23T07:11:32.638Z,3.500
2022-11-23T07:12:26.647Z,3.500
2022-11-23T07:13:23.019Z,3.500
2022-11-23T07:14:22.224Z,3.600
2022-11-23T07:15:34.780Z,3.600
2022-11-23T07:17:20.784Z,3.600
2022-11-23T07:18:36.955Z,3.600
2022-11-23T07:19:28.055Z,3.600
2022-11-23T07:20:22.657Z,3.600
2022-11-23T07:21:35.245Z,3.600
2022-11-23T07:22:31.491Z,3.600
2022-11-23T07:23:20.000Z,3.600
2022-11-23T07:24:25.955Z,3.600
2022-11-23T07:26:34.446Z,3.600
2022-11-23T07:27:22.605Z,3.700
2022-11-23T07:28:50.126Z,3.700
2022-11-23T07:30:29.497Z,3.700
2022-11-23T07:31:26.738Z,3.700
2022-11-23T07:33:26.723Z,3.800
2022-11-23T07:34:22.830Z,3.800
2022-11-23T07:35:34.515Z,3.800
2022-11-23T07:36:32.011Z,3.800
2022-11-23T07:37:29.306Z,3.800
2022-11-23T07:38:26.226Z,3.800
2022-11-23T07:39:41.909Z,3.800
2022-11-23T07:40:28.182Z,3.800
2022-11-23T07:41:23.651Z,3.900
2022-11-23T07:42:33.658Z,3.900
2022-11-23T07:43:30.815Z,3.900
2022-11-23T07:44:24.633Z,4.000
2022-11-23T07:45:20.639Z,4.000
2022-11-23T07:46:30.127Z,4.000
2022-11-23T07:47:23.534Z,4.000
2022-11-23T07:48:25.213Z,4.000
2022-11-23T07:49:28.180Z,4.000
2022-11-23T07:50:22.599Z,4.000
2022-11-23T07:51:26.148Z,4.000
2022-11-23T07:52:20.519Z,4.000
2022-11-23T07:53:33.154Z,4.100
2022-11-23T07:55:22.999Z,4.100
2022-11-23T07:56:34.920Z,4.100
2022-11-23T07:57:25.706Z,4.100
2022-11-23T07:59:31.283Z,4.200
2022-11-23T08:00:30.625Z,4.200
2022-11-23T08:01:28.653Z,4.200
2022-11-23T08:03:39.037Z,4.200
2022-11-23T08:04:30.271Z,4.200
2022-11-23T08:05:21.356Z,4.300
2022-11-23T08:06:21.335Z,4.300
2022-11-23T08:07:30.617Z,4.300
2022-11-23T08:08:30.442Z,4.400
2022-11-23T08:09:32.905Z,4.400
2022-11-23T08:12:42.733Z,4.400
2022-11-23T08:13:27.915Z,4.400
2022-11-23T08:14:32.780Z,4.500
2022-11-23T08:15:28.728Z,4.500
2022-11-23T08:16:24.436Z,4.500
2022-11-23T08:17:34.228Z,4.500
2022-11-23T08:19:28.215Z,4.600
2022-11-23T08:20:21.983Z,4.600
2022-11-23T08:21:36.006Z,4.600
2022-11-23T08:22:29.310Z,4.600
2022-11-23T08:23:24.746Z,4.600
2022-11-23T08:24:27.205Z,4.600
2022-11-23T08:26:24.679Z,4.700
2022-11-23T08:27:23.295Z,4.700
2022-11-23T08:28:20.985Z,4.700
2022-11-23T08:29:27.884Z,4.700
2022-11-23T08:30:27.717Z,4.800
2022-11-23T08:31:34.477Z,4.800
2022-11-23T08:33:26.196Z,4.800
2022-11-23T08:34:23.542Z,4.800
2022-11-23T08:35:24.948Z,4.900
2022-11-23T08:36:30.671Z,4.900
2022-11-23T08:37:38.449Z,5.000
2022-11-23T08:38:35.721Z,5.000
2022-11-23T08:40:25.324Z,5.000
2022-11-23T08:41:23.681Z,5.000
2022-11-23T08:42:32.322Z,5.000
2022-11-23T08:43:19.600Z,5.100
2022-11-23T08:44:23.089Z,5.100
2022-11-23T08:45:40.736Z,5.100
2022-11-23T08:46:22.125Z,5.100
2022-11-23T08:47:25.489Z,5.100
2022-11-23T08:49:33.408Z,5.200
2022-11-23T08:50:27.109Z,5.300
2022-11-23T08:51:26.299Z,5.300
2022-11-23T08:53:29.729Z,5.300
2022-11-23T08:54:32.136Z,5.400
2022-11-23T08:55:23.945Z,5.400
2022-11-23T08:57:22.896Z,5.400
2022-11-23T08:58:25.997Z,5.500
2022-11-23T08:59:38.660Z,5.500
2022-11-23T09:00:32.951Z,5.600
2022-11-23T09:01:25.598Z,5.600
2022-11-23T09:02:20.984Z,5.600
2022-11-23T09:03:20.127Z,5.600
2022-11-23T09:04:26.163Z,5.600
2022-11-23T09:05:24.615Z,5.600
2022-11-23T09:06:39.111Z,5.600
2022-11-23T09:07:31.196Z,5.600
2022-11-23T09:08:26.921Z,5.700
2022-11-23T09:09:22.152Z,5.700
2022-11-23T09:10:26.788Z,5.700
2022-11-23T09:11:26.838Z,5.700
2022-11-23T09:12:23.123Z,5.700
2022-11-23T09:13:21.552Z,5.700
2022-11-23T09:14:28.676Z,5.800
2022-11-23T09:15:24.538Z,5.800
2022-11-23T09:16:23.287Z,5.800
2022-11-23T09:17:30.637Z,5.800
2022-11-23T09:18:25.752Z,5.800
2022-11-23T09:19:23.211Z,5.800
2022-11-23T09:20:30.449Z,5.800
2022-11-23T09:21:32.926Z,5.800
2022-11-23T09:22:24.764Z,5.800
2022-11-23T09:23:20.882Z,5.900
2022-11-23T09:24:35.986Z,5.900
2022-11-23T09:26:29.184Z,6.000
2022-11-23T09:27:34.746Z,6.000
2022-11-23T09:28:23.501Z,6.000
2022-11-23T09:29:28.696Z,6.000
2022-11-23T09:30:25.189Z,6.000
2022-11-23T09:31:35.471Z,6.000
2022-11-23T09:32:30.973Z,6.000
2022-11-23T09:33:22.717Z,6.000
2022-11-23T09:36:19.354Z,6.100
2022-11-23T09:37:23.715Z,6.100
2022-11-23T09:38:55.184Z,6.100
2022-11-23T09:39:27.048Z,6.100
2022-11-23T09:40:32.161Z,6.100
2022-11-23T09:42:30.724Z,6.100
2022-11-23T09:43:31.816Z,6.200
2022-11-23T09:44:20.880Z,6.200
2022-11-23T09:45:33.912Z,6.200
2022-11-23T09:46:35.715Z,6.200
2022-11-23T09:47:26.632Z,6.200
2022-11-23T09:48:29.191Z,6.200
2022-11-23T09:49:29.108Z,6.200
2022-11-23T09:50:29.675Z,6.200
2022-11-23T09:51:22.750Z,6.300
2022-11-23T09:52:32.483Z,6.300
2022-11-23T09:53:27.361Z,6.300
2022-11-23T09:54:27.077Z,6.300
2022-11-23T09:55:30.909Z,6.300
2022-11-23T09:56:22.454Z,6.400
2022-11-23T09:57:27.125Z,6.400
2022-11-23T09:58:21.036Z,6.400
2022-11-23T09:59:30.781Z,6.400
2022-11-23T10:00:31.218Z,6.400
2022-11-23T10:01:23.212Z,6.500
2022-11-23T10:02:20.918Z,6.500
2022-11-23T10:03:33.598Z,6.500
2022-11-23T10:04:25.967Z,6.500
2022-11-23T10:05:30.815Z,6.500
2022-11-23T10:06:24.431Z,6.500
2022-11-23T10:07:29.228Z,6.500
2022-11-23T10:08:21.851Z,6.500
2022-11-23T10:09:24.451Z,6.600
2022-11-23T10:10:29.723Z,6.600
2022-11-23T10:12:40.217Z,6.700
2022-11-23T10:14:31.385Z,6.700
2022-11-23T10:15:25.075Z,6.800
2022-11-23T10:16:26.901Z,6.800
2022-11-23T10:17:35.274Z,6.800
2022-11-23T10:18:27.001Z,6.800
2022-11-23T10:19:20.940Z,6.800
2022-11-23T10:20:21.792Z,6.900
2022-11-23T10:21:28.980Z,6.900
2022-11-23T10:22:46.077Z,6.900
2022-11-23T10:23:36.432Z,7.000
2022-11-23T10:24:39.747Z,7.000
2022-11-23T10:25:23.760Z,7.000
2022-11-23T10:26:29.316Z,7.000
2022-11-23T10:27:27.009Z,7.000
2022-11-23T10:28:32.498Z,7.100
2022-11-23T10:29:19.672Z,7.100
2022-11-23T10:30:50.579Z,7.100
2022-11-23T10:31:21.189Z,7.200
2022-11-23T10:32:37.237Z,7.200
2022-11-23T10:33:30.192Z,7.300
2022-11-23T10:34:23.126Z,7.300
2022-11-23T10:35:30.829Z,7.300
2022-11-23T10:36:23.740Z,7.300
2022-11-23T10:37:34.024Z,7.400
2022-11-23T10:38:23.699Z,7.400
2022-11-23T10:39:41.833Z,7.400
2022-11-23T10:40:34.815Z,7.500
2022-11-23T10:41:25.841Z,7.500
2022-11-23T10:42:24.702Z,7.500
2022-11-23T10:43:28.142Z,7.500
2022-11-23T10:44:20.463Z,7.600
2022-11-23T10:45:25.954Z,7.600
2022-11-23T10:46:45.544Z,7.600
2022-11-23T10:47:37.120Z,7.600
2022-11-23T10:48:33.207Z,7.700
2022-11-23T10:51:25.257Z,7.700
2022-11-23T10:52:58.039Z,7.700
2022-11-23T10:53:25.028Z,7.700
2022-11-23T10:54:37.667Z,7.800
2022-11-23T10:55:38.178Z,7.800
2022-11-23T10:56:25.308Z,7.800
2022-11-23T10:57:21.332Z,7.800
2022-11-23T10:58:28.894Z,7.900
2022-11-23T10:59:22.783Z,7.900
2022-11-23T11:00:53.823Z,7.900
2022-11-23T11:01:47.768Z,8.000
2022-11-23T11:02:41.644Z,8.000
2022-11-23T11:03:32.696Z,8.000
2022-11-23T11:04:24.900Z,8.000
2022-11-23T11:06:08.654Z,8.000
2022-11-23T11:06:25.927Z,8.100
2022-11-23T11:07:23.599Z,8.100
2022-11-23T11:08:53.425Z,8.100
2022-11-23T11:09:45.350Z,8.100
2022-11-23T11:10:24.291Z,8.100
2022-11-23T11:11:28.830Z,8.100
2022-11-23T11:12:22.919Z,8.200
2022-11-23T11:13:29.347Z,8.200
2022-11-23T11:14:22.815Z,8.200
2022-11-23T11:15:55.206Z,8.250
2022-11-23T11:16:29.013Z,8.300
2022-11-23T11:17:36.828Z,8.300
2022-11-23T11:18:20.887Z,8.300
2022-11-23T11:19:27.891Z,8.300
2022-11-23T11:20:33.722Z,8.400
2022-11-23T11:21:20.725Z,8.400
2022-11-23T11:22:19.504Z,8.400
2022-11-23T11:23:49.495Z,8.500
2022-11-23T11:24:44.200Z,8.500
2022-11-23T11:25:53.608Z,8.500
2022-11-23T11:27:28.912Z,8.500
2022-11-23T11:28:31.182Z,8.500
2022-11-23T11:29:24.093Z,8.500
2022-11-23T11:30:54.130Z,8.600
2022-11-23T11:31:40.399Z,8.600
2022-11-23T11:32:26.125Z,8.600
2022-11-23T11:33:36.107Z,8.600
2022-11-23T11:34:31.547Z,8.600
2022-11-23T11:35:23.502Z,8.600
2022-11-23T11:36:29.223Z,8.600
2022-11-23T11:37:21.911Z,8.600
2022-11-23T11:38:22.251Z,8.700
2022-11-23T11:39:31.010Z,8.700
2022-11-23T11:40:42.315Z,8.700
2022-11-23T11:41:34.283Z,8.700
2022-11-23T11:42:25.754Z,8.700
2022-11-23T11:43:31.267Z,8.700
2022-11-23T11:44:26.904Z,8.700
2022-11-23T11:45:59.685Z,8.700
2022-11-23T11:46:32.229Z,8.700
2022-11-23T11:47:44.937Z,8.700
2022-11-23T11:48:36.769Z,8.700
2022-11-23T11:49:28.383Z,8.700
2022-11-23T11:50:28.493Z,8.700
2022-11-23T11:51:28.563Z,8.800
2022-11-23T11:52:24.936Z,8.800
2022-11-23T11:53:41.313Z,8.800
2022-11-23T11:54:24.049Z,8.800
2022-11-23T11:55:26.567Z,8.800
2022-11-23T11:56:34.286Z,8.800
2022-11-23T11:57:27.071Z,8.700
2022-11-23T11:58:32.665Z,8.700
2022-11-23T11:59:29.022Z,8.700
2022-11-23T12:00:44.711Z,8.700
2022-11-23T12:01:26.902Z,8.700
2022-11-23T12:02:47.838Z,8.700
2022-11-23T12:04:36.661Z,8.700
2022-11-23T12:05:20.137Z,8.700
2022-11-23T12:06:26.350Z,8.700
2022-11-23T12:07:24.624Z,8.700
2022-11-23T12:08:30.800Z,8.700
2022-11-23T12:09:53.569Z,8.700
2022-11-23T12:10:52.765Z,8.700
2022-11-23T12:11:36.038Z,8.700
2022-11-23T12:12:31.600Z,8.700
2022-11-23T12:14:26.779Z,8.700
2022-11-23T12:15:48.422Z,8.800
2022-11-23T12:17:17.046Z,8.800
2022-11-23T12:17:59.395Z,8.800
2022-11-23T12:17:59.628Z,8.800
2022-11-23T12:18:34.811Z,8.800
2022-11-23T12:19:30.600Z,8.800
2022-11-23T12:20:26.595Z,8.800
2022-11-23T12:21:31.912Z,8.900
2022-11-23T12:22:25.938Z,8.900
2022-11-23T12:23:22.510Z,8.900
2022-11-23T12:24:41.881Z,8.900
2022-11-23T12:25:44.239Z,8.900
2022-11-23T12:27:28.546Z,9.000
2022-11-23T12:28:23.706Z,9.000
2022-11-23T12:29:31.648Z,9.000
2022-11-23T12:30:23.486Z,9.000
2022-11-23T12:31:55.724Z,9.000
2022-11-23T12:32:50.891Z,9.000
2022-11-23T12:34:37.730Z,9.100
2022-11-23T12:35:26.339Z,9.100
2022-11-23T12:36:35.600Z,9.100
2022-11-23T12:37:27.158Z,9.100
2022-11-23T12:38:59.907Z,9.200
2022-11-23T12:39:55.627Z,9.200
2022-11-23T12:41:22.090Z,9.300
2022-11-23T12:42:31.990Z,9.300
2022-11-23T12:43:28.996Z,9.300
2022-11-23T12:44:32.591Z,9.300
2022-11-23T12:45:21.862Z,9.300
2022-11-23T12:46:30.499Z,9.300
2022-11-23T12:47:42.683Z,9.400
2022-11-23T12:48:26.731Z,9.400
2022-11-23T12:49:39.018Z,9.400
2022-11-23T12:50:28.288Z,9.400
2022-11-23T12:51:25.573Z,9.400
2022-11-23T12:52:23.678Z,9.400
2022-11-23T12:53:49.969Z,9.400
2022-11-23T12:54:42.663Z,9.450
2022-11-23T12:55:31.468Z,9.500
2022-11-23T12:56:39.639Z,9.500
2022-11-23T12:57:28.672Z,9.500
2022-11-23T12:58:30.901Z,9.500
2022-11-23T12:59:24.477Z,9.500
2022-11-23T13:00:23.127Z,9.600
2022-11-23T13:01:58.047Z,9.600
2022-11-23T13:02:32.178Z,9.600
2022-11-23T13:03:31.591Z,9.600
2022-11-23T13:04:39.761Z,9.600
2022-11-23T13:05:29.952Z,9.600
2022-11-23T13:06:26.184Z,9.600
2022-11-23T13:07:33.927Z,9.600
2022-11-23T13:08:21.958Z,9.600
2022-11-23T13:09:37.660Z,9.600
2022-11-23T13:10:24.822Z,9.600
2022-11-23T13:11:41.723Z,9.700
2022-11-23T13:12:34.826Z,9.700
2022-11-23T13:13:25.797Z,9.700
2022-11-23T13:14:32.966Z,9.700
2022-11-23T13:15:25.453Z,9.700
2022-11-23T13:16:38.687Z,9.700
2022-11-23T13:17:27.987Z,9.700
2022-11-23T13:18:45.427Z,9.700
2022-11-23T13:19:25.438Z,9.600
2022-11-23T13:20:35.269Z,9.600
2022-11-23T13:21:23.193Z,9.600
2022-11-23T13:22:27.808Z,9.600
2022-11-23T13:23:20.660Z,9.600
2022-11-23T13:24:32.175Z,9.600
2022-11-23T13:25:28.095Z,9.600
2022-11-23T13:26:45.393Z,9.600
2022-11-23T13:29:21.488Z,9.600
2022-11-23T13:30:24.280Z,9.600
2022-11-23T13:31:31.182Z,9.600
2022-11-23T13:32:45.692Z,9.500
2022-11-23T13:33:46.942Z,9.500
2022-11-23T13:34:39.632Z,9.500
2022-11-23T13:36:42.990Z,9.500
2022-11-23T13:38:21.396Z,9.400
2022-11-23T13:39:21.433Z,9.400
2022-11-23T13:40:51.490Z,9.400
2022-11-23T13:41:44.955Z,9.400
2022-11-23T13:43:28.466Z,9.400
2022-11-23T13:44:22.699Z,9.400
2022-11-23T13:45:26.057Z,9.400
2022-11-23T13:46:23.387Z,9.400
2022-11-23T13:47:19.882Z,9.300
2022-11-23T13:49:12.311Z,9.300
2022-11-23T13:49:32.630Z,9.300
2022-11-23T13:50:37.055Z,9.300
2022-11-23T13:51:28.830Z,9.300
2022-11-23T13:52:30.778Z,9.300
2022-11-23T13:53:28.568Z,9.300
2022-11-23T13:54:39.744Z,9.300
2022-11-23T13:55:51.525Z,9.300
2022-11-23T13:56:35.986Z,9.300
2022-11-23T13:57:24.921Z,9.300
2022-11-23T13:58:30.028Z,9.300
2022-11-23T13:59:37.080Z,9.300
2022-11-23T14:01:22.673Z,9.300
2022-11-23T14:02:51.618Z,9.300
2022-11-23T14:03:39.253Z,9.300
2022-11-23T14:04:31.471Z,9.300
2022-11-23T14:05:38.524Z,9.300
2022-11-23T14:06:28.910Z,9.300
2022-11-23T14:07:22.163Z,9.300
2022-11-23T14:08:23.381Z,9.300
2022-11-23T14:10:06.760Z,9.300
2022-11-23T14:10:29.014Z,9.300
2022-11-23T14:11:28.714Z,9.300
2022-11-23T14:12:41.360Z,9.300
2022-11-23T14:13:34.797Z,9.300
2022-11-23T14:14:25.004Z,9.300
2022-11-23T14:15:25.773Z,9.300
2022-11-23T14:16:20.636Z,9.300
2022-11-23T14:17:52.160Z,9.300
2022-11-23T14:18:35.039Z,9.300
2022-11-23T14:19:42.432Z,9.300
2022-11-23T14:20:37.470Z,9.400
2022-11-23T14:21:29.221Z,9.400
2022-11-23T14:22:23.206Z,9.400
2022-11-23T14:23:29.221Z,9.400
2022-11-23T14:24:50.053Z,9.400
2022-11-23T14:25:35.524Z,9.400
2022-11-23T14:26:23.723Z,9.400
2022-11-23T14:27:47.340Z,9.400
2022-11-23T14:28:34.271Z,9.400
2022-11-23T14:29:31.021Z,9.400
2022-11-23T14:30:31.261Z,9.400
2022-11-23T14:31:25.749Z,9.400
2022-11-23T14:32:24.631Z,9.400
2022-11-23T14:33:22.931Z,9.400
2022-11-23T14:34:47.894Z,9.400
2022-11-23T14:35:38.735Z,9.400
2022-11-23T14:36:35.564Z,9.400
2022-11-23T14:37:22.868Z,9.400
2022-11-23T14:38:30.364Z,9.400
2022-11-23T14:39:41.103Z,9.400
2022-11-23T14:40:27.213Z,9.400
2022-11-23T14:42:47.485Z,9.400
2022-11-23T14:43:34.389Z,9.400
2022-11-23T14:46:24.501Z,9.400
2022-11-23T14:47:31.276Z,9.300
2022-11-23T14:48:57.605Z,9.300
2022-11-23T14:49:24.064Z,9.300
2022-11-23T14:50:43.104Z,9.300
2022-11-23T14:52:24.613Z,9.300
2022-11-23T14:53:30.214Z,9.300
2022-11-23T14:54:19.572Z,9.300
2022-11-23T14:55:29.407Z,9.300
2022-11-23T14:56:42.445Z,9.300
2022-11-23T14:57:44.018Z,9.300
2022-11-23T14:59:28.832Z,9.300
2022-11-23T15:00:25.425Z,9.300
2022-11-23T15:02:22.135Z,9.300
2022-11-23T15:04:00.910Z,9.300
2022-11-23T15:04:48.911Z,9.300
2022-11-23T15:05:32.337Z,9.300
2022-11-23T15:06:24.760Z,9.300
2022-11-23T15:07:30.322Z,9.300
2022-11-23T15:08:27.317Z,9.300
2022-11-23T15:09:22.512Z,9.300